Kezdőlap
METAR-TAF:

METAR-TAF

Repülőterek :

Antananarivo, Madagaszkár

földrajzi szélesség: 18-48S, földrajzi hosszúság: 047-29E, magasság: 1279 m

Jelenlegi meteorológiai megfigyelések

A jelentés 22 perccel ezelõtt készült, 02:00 UTC
Keleti szél 6 kt
Hőmérséklet 17°C
Páratartalom 88%
Légköri nyomás 1022 hPa
Látótávolság 10 km, vagy több
Kevés felhő 1000 lábon
Szakadozott felhőzet 2000 lábon

METAR: FMMI 170200Z 09006KT 9999 FEW010 BKN020 17/15 Q1022 NOSIG

Idő: 05:22 (02:22 UTC)

Előrejelzés

A jelentés 3 órával és 22 perccel ezelõtt készült, 23:00 UTC
Az előrejelzés 17-én 00 óra UTC és 18-én 06 óra UTC között érvényes
Kelet-délkeleti szél 10 kt széllökések: 20 kt
Látótávolság 10 km, vagy több
Kevés felhő 1000 lábon
Szakadozott felhőzet 2000 lábon

TAF: FMMI 162300Z 1700/1806 12010G20KT 9999 FEW010 BKN020

Meteorológiai megfigyelések és előrejelzések több, mint 4000 repülőtéren (METAR és TAF jelentéseket).

A térképen piros és sárga pontok jelzik az elérhető meteorológiai állomásokat.

Mozgassa az egeret a pont fölött, hogy megjelenjen az állomás neve.

Azután kattintson az időjárási megfigyelések és előrejelzések megtekintéséhez.

A térkép megváltoztatása: kattintson a fekete keresztel jelölt zöld gombra ráközelítéshez, a vonallal jelölt zöld gombra távolításhoz, vagy a zöld nyilakra a szomszédos térképek eléréséhez.


METAR-TAF: